sensor_id;sensor_type;location;lat;lon;timestamp;P1;durP1;ratioP1;P2;durP2;ratioP2
24677;SDS011;12800;53.094;8.778;2023-12-20T00:00:07;11.40;;;2.53;;
24677;SDS011;12800;53.094;8.778;2023-12-20T00:02:33;8.10;;;1.60;;
24677;SDS011;12800;53.094;8.778;2023-12-20T00:05:00;12.90;;;5.43;;
24677;SDS011;12800;53.094;8.778;2023-12-20T00:07:25;22.50;;;12.43;;
24677;SDS011;12800;53.094;8.778;2023-12-20T00:09:51;18.33;;;7.80;;
24677;SDS011;12800;53.094;8.778;2023-12-20T00:12:16;13.47;;;4.60;;
24677;SDS011;12800;53.094;8.778;2023-12-20T00:14:42;14.00;;;5.50;;
24677;SDS011;12800;53.094;8.778;2023-12-20T00:17:07;14.97;;;3.10;;
24677;SDS011;12800;53.094;8.778;2023-12-20T00:19:33;7.00;;;1.83;;
24677;SDS011;12800;53.094;8.778;2023-12-20T00:21:59;6.57;;;1.53;;
24677;SDS011;12800;53.094;8.778;2023-12-20T00:24:24;10.20;;;1.87;;
24677;SDS011;12800;53.094;8.778;2023-12-20T00:26:50;6.17;;;1.63;;
24677;SDS011;12800;53.094;8.778;2023-12-20T00:29:16;6.77;;;1.40;;
24677;SDS011;12800;53.094;8.778;2023-12-20T00:31:41;9.50;;;1.67;;
24677;SDS011;12800;53.094;8.778;2023-12-20T00:34:07;5.50;;;1.97;;
24677;SDS011;12800;53.094;8.778;2023-12-20T00:36:32;8.67;;;1.60;;
24677;SDS011;12800;53.094;8.778;2023-12-20T00:38:58;6.40;;;1.30;;
24677;SDS011;12800;53.094;8.778;2023-12-20T00:41:24;8.33;;;1.60;;
24677;SDS011;12800;53.094;8.778;2023-12-20T00:43:49;14.80;;;1.63;;
24677;SDS011;12800;53.094;8.778;2023-12-20T00:46:15;11.77;;;2.13;;
24677;SDS011;12800;53.094;8.778;2023-12-20T00:48:40;5.43;;;1.27;;
24677;SDS011;12800;53.094;8.778;2023-12-20T00:51:07;10.40;;;1.70;;
24677;SDS011;12800;53.094;8.778;2023-12-20T00:53:33;9.63;;;2.00;;
24677;SDS011;12800;53.094;8.778;2023-12-20T00:55:58;5.17;;;1.50;;
24677;SDS011;12800;53.094;8.778;2023-12-20T00:58:24;6.63;;;1.73;;
24677;SDS011;12800;53.094;8.778;2023-12-20T01:00:49;7.63;;;1.67;;
24677;SDS011;12800;53.094;8.778;2023-12-20T01:03:16;5.90;;;1.43;;
24677;SDS011;12800;53.094;8.778;2023-12-20T01:05:41;7.07;;;1.67;;
24677;SDS011;12800;53.094;8.778;2023-12-20T01:08:07;7.23;;;2.07;;
24677;SDS011;12800;53.094;8.778;2023-12-20T01:10:32;15.03;;;4.07;;
24677;SDS011;12800;53.094;8.778;2023-12-20T01:12:58;11.87;;;2.90;;
24677;SDS011;12800;53.094;8.778;2023-12-20T01:15:24;5.50;;;1.60;;
24677;SDS011;12800;53.094;8.778;2023-12-20T01:17:49;5.13;;;1.80;;
24677;SDS011;12800;53.094;8.778;2023-12-20T01:20:16;8.63;;;2.50;;
24677;SDS011;12800;53.094;8.778;2023-12-20T01:22:42;11.57;;;3.47;;
24677;SDS011;12800;53.094;8.778;2023-12-20T01:25:08;8.00;;;2.57;;
24677;SDS011;12800;53.094;8.778;2023-12-20T01:27:33;8.73;;;3.03;;
24677;SDS011;12800;53.094;8.778;2023-12-20T01:29:59;11.20;;;2.00;;
24677;SDS011;12800;53.094;8.778;2023-12-20T01:32:24;9.13;;;2.43;;
24677;SDS011;12800;53.094;8.778;2023-12-20T01:34:50;11.73;;;1.70;;
24677;SDS011;12800;53.094;8.778;2023-12-20T01:37:16;5.30;;;1.60;;
24677;SDS011;12800;53.094;8.778;2023-12-20T01:39:41;7.60;;;1.73;;
24677;SDS011;12800;53.094;8.778;2023-12-20T01:42:07;6.57;;;1.50;;
24677;SDS011;12800;53.094;8.778;2023-12-20T01:44:32;5.30;;;1.47;;
24677;SDS011;12800;53.094;8.778;2023-12-20T01:46:58;7.57;;;1.30;;
24677;SDS011;12800;53.094;8.778;2023-12-20T01:49:24;11.57;;;1.60;;
24677;SDS011;12800;53.094;8.778;2023-12-20T01:51:50;7.60;;;1.33;;
24677;SDS011;12800;53.094;8.778;2023-12-20T01:54:17;9.03;;;1.50;;
24677;SDS011;12800;53.094;8.778;2023-12-20T01:56:44;9.93;;;1.93;;
24677;SDS011;12800;53.094;8.778;2023-12-20T01:59:10;5.13;;;1.73;;
24677;SDS011;12800;53.094;8.778;2023-12-20T02:01:36;6.43;;;1.40;;
24677;SDS011;12800;53.094;8.778;2023-12-20T02:04:02;6.03;;;1.40;;
24677;SDS011;12800;53.094;8.778;2023-12-20T02:06:29;7.67;;;1.40;;
24677;SDS011;12800;53.094;8.778;2023-12-20T02:08:58;13.83;;;2.30;;
24677;SDS011;12800;53.094;8.778;2023-12-20T02:11:25;6.20;;;1.30;;
24677;SDS011;12800;53.094;8.778;2023-12-20T02:13:51;6.03;;;2.13;;
24677;SDS011;12800;53.094;8.778;2023-12-20T02:16:17;9.13;;;1.40;;
24677;SDS011;12800;53.094;8.778;2023-12-20T02:18:43;8.57;;;2.00;;
24677;SDS011;12800;53.094;8.778;2023-12-20T02:21:09;7.93;;;1.33;;
24677;SDS011;12800;53.094;8.778;2023-12-20T02:23:35;9.33;;;1.53;;
24677;SDS011;12800;53.094;8.778;2023-12-20T02:26:01;4.57;;;1.40;;
24677;SDS011;12800;53.094;8.778;2023-12-20T02:28:28;7.93;;;1.10;;
24677;SDS011;12800;53.094;8.778;2023-12-20T02:30:54;7.97;;;1.43;;
24677;SDS011;12800;53.094;8.778;2023-12-20T02:33:20;4.13;;;1.27;;
24677;SDS011;12800;53.094;8.778;2023-12-20T02:35:45;5.93;;;1.93;;
24677;SDS011;12800;53.094;8.778;2023-12-20T02:38:11;6.47;;;2.00;;
24677;SDS011;12800;53.094;8.778;2023-12-20T02:40:36;5.57;;;2.17;;
24677;SDS011;12800;53.094;8.778;2023-12-20T02:43:02;4.97;;;1.20;;
24677;SDS011;12800;53.094;8.778;2023-12-20T02:45:28;9.80;;;1.43;;
24677;SDS011;12800;53.094;8.778;2023-12-20T02:47:53;9.17;;;1.83;;
24677;SDS011;12800;53.094;8.778;2023-12-20T02:50:19;10.17;;;1.93;;
24677;SDS011;12800;53.094;8.778;2023-12-20T02:52:45;12.37;;;1.70;;
24677;SDS011;12800;53.094;8.778;2023-12-20T02:55:11;4.70;;;1.33;;
24677;SDS011;12800;53.094;8.778;2023-12-20T02:57:36;5.90;;;1.63;;
24677;SDS011;12800;53.094;8.778;2023-12-20T03:00:06;9.67;;;1.80;;
24677;SDS011;12800;53.094;8.778;2023-12-20T03:02:34;4.90;;;1.27;;
24677;SDS011;12800;53.094;8.778;2023-12-20T03:05:00;11.43;;;1.70;;
24677;SDS011;12800;53.094;8.778;2023-12-20T03:07:26;10.13;;;1.97;;
24677;SDS011;12800;53.094;8.778;2023-12-20T03:09:51;4.53;;;1.50;;
24677;SDS011;12800;53.094;8.778;2023-12-20T03:12:17;14.93;;;2.27;;
24677;SDS011;12800;53.094;8.778;2023-12-20T03:14:43;4.80;;;1.37;;
24677;SDS011;12800;53.094;8.778;2023-12-20T03:17:09;10.33;;;1.70;;
24677;SDS011;12800;53.094;8.778;2023-12-20T03:19:35;13.00;;;1.90;;
24677;SDS011;12800;53.094;8.778;2023-12-20T03:22:01;5.87;;;1.27;;
24677;SDS011;12800;53.094;8.778;2023-12-20T03:24:27;8.47;;;1.33;;
24677;SDS011;12800;53.094;8.778;2023-12-20T03:26:52;3.80;;;1.37;;
24677;SDS011;12800;53.094;8.778;2023-12-20T03:29:18;6.03;;;2.30;;
24677;SDS011;12800;53.094;8.778;2023-12-20T03:31:44;12.23;;;2.23;;
24677;SDS011;12800;53.094;8.778;2023-12-20T03:34:10;5.03;;;1.37;;
24677;SDS011;12800;53.094;8.778;2023-12-20T03:36:36;6.00;;;1.50;;
24677;SDS011;12800;53.094;8.778;2023-12-20T03:39:02;8.60;;;1.83;;
24677;SDS011;12800;53.094;8.778;2023-12-20T03:41:27;10.70;;;2.17;;
24677;SDS011;12800;53.094;8.778;2023-12-20T03:43:53;6.43;;;1.87;;
24677;SDS011;12800;53.094;8.778;2023-12-20T03:46:19;13.87;;;2.60;;
24677;SDS011;12800;53.094;8.778;2023-12-20T03:48:44;12.97;;;2.80;;
24677;SDS011;12800;53.094;8.778;2023-12-20T03:51:10;8.93;;;1.73;;
24677;SDS011;12800;53.094;8.778;2023-12-20T03:53:36;5.47;;;1.40;;
24677;SDS011;12800;53.094;8.778;2023-12-20T03:56:01;7.30;;;1.67;;
24677;SDS011;12800;53.094;8.778;2023-12-20T03:58:27;8.27;;;1.83;;
24677;SDS011;12800;53.094;8.778;2023-12-20T04:00:52;10.17;;;1.93;;
24677;SDS011;12800;53.094;8.778;2023-12-20T04:03:18;7.93;;;1.87;;
24677;SDS011;12800;53.094;8.778;2023-12-20T04:05:44;18.73;;;2.50;;
24677;SDS011;12800;53.094;8.778;2023-12-20T04:08:09;11.60;;;2.27;;
24677;SDS011;12800;53.094;8.778;2023-12-20T04:10:36;11.17;;;2.57;;
24677;SDS011;12800;53.094;8.778;2023-12-20T04:13:02;11.77;;;3.03;;
24677;SDS011;12800;53.094;8.778;2023-12-20T04:15:28;10.27;;;2.40;;
24677;SDS011;12800;53.094;8.778;2023-12-20T04:17:54;11.80;;;2.77;;
24677;SDS011;12800;53.094;8.778;2023-12-20T04:20:19;9.53;;;2.47;;
24677;SDS011;12800;53.094;8.778;2023-12-20T04:22:45;9.87;;;1.80;;
24677;SDS011;12800;53.094;8.778;2023-12-20T04:25:11;11.97;;;1.70;;
24677;SDS011;12800;53.094;8.778;2023-12-20T04:27:36;10.67;;;1.83;;
24677;SDS011;12800;53.094;8.778;2023-12-20T04:30:02;9.40;;;2.10;;
24677;SDS011;12800;53.094;8.778;2023-12-20T04:32:28;13.20;;;1.87;;
24677;SDS011;12800;53.094;8.778;2023-12-20T04:34:54;9.40;;;2.07;;
24677;SDS011;12800;53.094;8.778;2023-12-20T04:37:20;15.17;;;2.40;;
24677;SDS011;12800;53.094;8.778;2023-12-20T04:39:45;7.40;;;1.93;;
24677;SDS011;12800;53.094;8.778;2023-12-20T04:42:11;9.50;;;2.33;;
24677;SDS011;12800;53.094;8.778;2023-12-20T04:44:36;8.90;;;2.07;;
24677;SDS011;12800;53.094;8.778;2023-12-20T04:47:02;8.00;;;2.10;;
24677;SDS011;12800;53.094;8.778;2023-12-20T04:49:28;7.57;;;2.13;;
24677;SDS011;12800;53.094;8.778;2023-12-20T04:51:54;12.87;;;2.63;;
24677;SDS011;12800;53.094;8.778;2023-12-20T04:54:20;11.10;;;2.90;;
24677;SDS011;12800;53.094;8.778;2023-12-20T04:56:46;11.47;;;2.63;;
24677;SDS011;12800;53.094;8.778;2023-12-20T04:59:12;12.13;;;2.70;;
24677;SDS011;12800;53.094;8.778;2023-12-20T05:01:38;8.67;;;1.90;;
24677;SDS011;12800;53.094;8.778;2023-12-20T05:04:04;8.60;;;2.00;;
24677;SDS011;12800;53.094;8.778;2023-12-20T05:06:29;10.50;;;2.03;;
24677;SDS011;12800;53.094;8.778;2023-12-20T05:08:55;10.07;;;2.33;;
24677;SDS011;12800;53.094;8.778;2023-12-20T05:11:20;10.77;;;2.60;;
24677;SDS011;12800;53.094;8.778;2023-12-20T05:13:46;13.30;;;2.47;;
24677;SDS011;12800;53.094;8.778;2023-12-20T05:16:12;8.93;;;1.97;;
24677;SDS011;12800;53.094;8.778;2023-12-20T05:18:39;8.57;;;2.00;;
24677;SDS011;12800;53.094;8.778;2023-12-20T05:21:05;11.63;;;2.80;;
24677;SDS011;12800;53.094;8.778;2023-12-20T05:23:30;12.80;;;2.73;;
24677;SDS011;12800;53.094;8.778;2023-12-20T05:25:56;10.37;;;2.07;;
24677;SDS011;12800;53.094;8.778;2023-12-20T05:28:21;10.20;;;2.30;;
24677;SDS011;12800;53.094;8.778;2023-12-20T05:30:47;7.43;;;1.80;;
24677;SDS011;12800;53.094;8.778;2023-12-20T05:33:13;9.77;;;2.63;;
24677;SDS011;12800;53.094;8.778;2023-12-20T05:35:39;11.30;;;2.70;;
24677;SDS011;12800;53.094;8.778;2023-12-20T05:38:04;9.17;;;2.00;;
24677;SDS011;12800;53.094;8.778;2023-12-20T05:40:30;18.33;;;2.10;;
24677;SDS011;12800;53.094;8.778;2023-12-20T05:42:55;10.10;;;2.43;;
24677;SDS011;12800;53.094;8.778;2023-12-20T05:45:21;8.20;;;1.70;;
24677;SDS011;12800;53.094;8.778;2023-12-20T05:47:46;6.50;;;2.57;;
24677;SDS011;12800;53.094;8.778;2023-12-20T05:50:12;11.90;;;2.60;;
24677;SDS011;12800;53.094;8.778;2023-12-20T05:52:38;10.10;;;2.87;;
24677;SDS011;12800;53.094;8.778;2023-12-20T05:55:03;12.63;;;2.20;;
24677;SDS011;12800;53.094;8.778;2023-12-20T05:57:29;12.00;;;2.40;;
24677;SDS011;12800;53.094;8.778;2023-12-20T05:59:54;11.70;;;2.10;;
24677;SDS011;12800;53.094;8.778;2023-12-20T06:02:20;10.77;;;2.90;;
24677;SDS011;12800;53.094;8.778;2023-12-20T06:04:46;13.90;;;3.40;;
24677;SDS011;12800;53.094;8.778;2023-12-20T06:07:11;9.70;;;2.07;;
24677;SDS011;12800;53.094;8.778;2023-12-20T06:09:38;14.07;;;2.43;;
24677;SDS011;12800;53.094;8.778;2023-12-20T06:12:03;12.83;;;2.93;;
24677;SDS011;12800;53.094;8.778;2023-12-20T06:14:29;14.03;;;3.37;;
24677;SDS011;12800;53.094;8.778;2023-12-20T06:16:55;11.60;;;2.77;;
24677;SDS011;12800;53.094;8.778;2023-12-20T06:19:22;11.63;;;2.43;;
24677;SDS011;12800;53.094;8.778;2023-12-20T06:21:47;15.43;;;3.20;;
24677;SDS011;12800;53.094;8.778;2023-12-20T06:24:13;11.97;;;2.40;;
24677;SDS011;12800;53.094;8.778;2023-12-20T06:26:39;18.03;;;2.87;;
24677;SDS011;12800;53.094;8.778;2023-12-20T06:29:04;15.40;;;2.47;;
24677;SDS011;12800;53.094;8.778;2023-12-20T06:31:30;17.83;;;3.63;;
24677;SDS011;12800;53.094;8.778;2023-12-20T06:33:57;13.60;;;2.40;;
24677;SDS011;12800;53.094;8.778;2023-12-20T06:36:24;16.10;;;3.03;;
24677;SDS011;12800;53.094;8.778;2023-12-20T06:38:51;15.57;;;3.20;;
24677;SDS011;12800;53.094;8.778;2023-12-20T06:41:17;18.83;;;2.97;;
24677;SDS011;12800;53.094;8.778;2023-12-20T06:43:42;13.73;;;2.47;;
24677;SDS011;12800;53.094;8.778;2023-12-20T06:46:08;17.77;;;2.77;;
24677;SDS011;12800;53.094;8.778;2023-12-20T06:48:34;18.03;;;3.57;;
24677;SDS011;12800;53.094;8.778;2023-12-20T06:51:00;14.90;;;2.67;;
24677;SDS011;12800;53.094;8.778;2023-12-20T06:53:29;18.27;;;3.17;;
24677;SDS011;12800;53.094;8.778;2023-12-20T06:55:55;14.43;;;3.17;;
24677;SDS011;12800;53.094;8.778;2023-12-20T06:58:23;9.43;;;3.13;;
24677;SDS011;12800;53.094;8.778;2023-12-20T07:00:50;12.00;;;3.53;;
24677;SDS011;12800;53.094;8.778;2023-12-20T07:03:16;16.57;;;3.20;;
24677;SDS011;12800;53.094;8.778;2023-12-20T07:05:42;21.70;;;6.60;;
24677;SDS011;12800;53.094;8.778;2023-12-20T07:08:08;12.37;;;3.47;;
24677;SDS011;12800;53.094;8.778;2023-12-20T07:10:34;10.53;;;3.07;;
24677;SDS011;12800;53.094;8.778;2023-12-20T07:12:59;11.67;;;3.23;;
24677;SDS011;12800;53.094;8.778;2023-12-20T07:15:25;10.03;;;2.53;;
24677;SDS011;12800;53.094;8.778;2023-12-20T07:17:52;16.50;;;3.03;;
24677;SDS011;12800;53.094;8.778;2023-12-20T07:20:18;13.67;;;3.33;;
24677;SDS011;12800;53.094;8.778;2023-12-20T07:22:43;14.07;;;3.63;;
24677;SDS011;12800;53.094;8.778;2023-12-20T07:25:09;12.53;;;2.73;;
24677;SDS011;12800;53.094;8.778;2023-12-20T07:27:35;11.77;;;2.83;;
24677;SDS011;12800;53.094;8.778;2023-12-20T07:30:01;15.47;;;3.40;;
24677;SDS011;12800;53.094;8.778;2023-12-20T07:32:27;17.03;;;3.07;;
24677;SDS011;12800;53.094;8.778;2023-12-20T07:34:52;11.83;;;2.63;;
24677;SDS011;12800;53.094;8.778;2023-12-20T07:37:19;14.67;;;3.10;;
24677;SDS011;12800;53.094;8.778;2023-12-20T07:39:46;14.97;;;3.87;;
24677;SDS011;12800;53.094;8.778;2023-12-20T07:42:11;10.97;;;3.17;;
24677;SDS011;12800;53.094;8.778;2023-12-20T07:44:37;14.57;;;4.57;;
24677;SDS011;12800;53.094;8.778;2023-12-20T07:47:03;18.60;;;3.00;;
24677;SDS011;12800;53.094;8.778;2023-12-20T07:49:30;13.57;;;3.07;;
24677;SDS011;12800;53.094;8.778;2023-12-20T07:51:55;11.03;;;3.57;;
24677;SDS011;12800;53.094;8.778;2023-12-20T07:54:21;11.67;;;2.47;;
24677;SDS011;12800;53.094;8.778;2023-12-20T07:56:47;18.43;;;2.53;;
24677;SDS011;12800;53.094;8.778;2023-12-20T07:59:13;12.70;;;3.20;;
24677;SDS011;12800;53.094;8.778;2023-12-20T08:01:39;17.00;;;2.87;;
24677;SDS011;12800;53.094;8.778;2023-12-20T08:04:05;9.40;;;2.97;;
24677;SDS011;12800;53.094;8.778;2023-12-20T08:06:31;10.37;;;3.10;;
24677;SDS011;12800;53.094;8.778;2023-12-20T08:08:56;14.63;;;2.80;;
24677;SDS011;12800;53.094;8.778;2023-12-20T08:11:22;12.03;;;2.70;;
24677;SDS011;12800;53.094;8.778;2023-12-20T08:13:48;12.57;;;2.77;;
24677;SDS011;12800;53.094;8.778;2023-12-20T08:16:13;10.80;;;3.47;;
24677;SDS011;12800;53.094;8.778;2023-12-20T08:18:40;12.23;;;3.47;;
24677;SDS011;12800;53.094;8.778;2023-12-20T08:21:07;15.13;;;3.00;;
24677;SDS011;12800;53.094;8.778;2023-12-20T08:23:33;14.83;;;2.57;;
24677;SDS011;12800;53.094;8.778;2023-12-20T08:26:03;14.87;;;2.93;;
24677;SDS011;12800;53.094;8.778;2023-12-20T08:28:32;11.80;;;3.47;;
24677;SDS011;12800;53.094;8.778;2023-12-20T08:30:59;13.03;;;2.73;;
24677;SDS011;12800;53.094;8.778;2023-12-20T08:33:25;15.37;;;2.87;;
24677;SDS011;12800;53.094;8.778;2023-12-20T08:35:50;11.90;;;2.63;;
24677;SDS011;12800;53.094;8.778;2023-12-20T08:38:16;14.93;;;2.63;;
24677;SDS011;12800;53.094;8.778;2023-12-20T08:40:42;15.33;;;3.20;;
24677;SDS011;12800;53.094;8.778;2023-12-20T08:43:08;12.90;;;4.03;;
24677;SDS011;12800;53.094;8.778;2023-12-20T08:45:34;15.17;;;3.20;;
24677;SDS011;12800;53.094;8.778;2023-12-20T08:48:00;10.43;;;2.57;;
24677;SDS011;12800;53.094;8.778;2023-12-20T08:50:26;9.63;;;2.63;;
24677;SDS011;12800;53.094;8.778;2023-12-20T08:52:51;17.50;;;3.60;;
24677;SDS011;12800;53.094;8.778;2023-12-20T08:55:18;11.90;;;2.33;;
24677;SDS011;12800;53.094;8.778;2023-12-20T08:57:44;13.50;;;2.87;;
24677;SDS011;12800;53.094;8.778;2023-12-20T09:00:10;14.67;;;3.03;;
24677;SDS011;12800;53.094;8.778;2023-12-20T09:02:36;12.03;;;2.60;;
24677;SDS011;12800;53.094;8.778;2023-12-20T09:05:02;13.43;;;2.53;;
24677;SDS011;12800;53.094;8.778;2023-12-20T09:07:28;13.93;;;2.43;;
24677;SDS011;12800;53.094;8.778;2023-12-20T09:09:56;10.80;;;2.50;;
24677;SDS011;12800;53.094;8.778;2023-12-20T09:12:22;14.03;;;2.60;;
24677;SDS011;12800;53.094;8.778;2023-12-20T09:14:49;9.03;;;2.93;;
24677;SDS011;12800;53.094;8.778;2023-12-20T09:17:16;8.87;;;2.30;;
24677;SDS011;12800;53.094;8.778;2023-12-20T09:19:43;10.27;;;2.97;;
24677;SDS011;12800;53.094;8.778;2023-12-20T09:22:09;13.30;;;2.63;;
24677;SDS011;12800;53.094;8.778;2023-12-20T09:24:35;11.07;;;2.43;;
24677;SDS011;12800;53.094;8.778;2023-12-20T09:27:01;8.80;;;2.37;;
24677;SDS011;12800;53.094;8.778;2023-12-20T09:29:27;12.83;;;3.27;;
24677;SDS011;12800;53.094;8.778;2023-12-20T09:31:54;11.67;;;2.50;;
24677;SDS011;12800;53.094;8.778;2023-12-20T09:34:19;12.13;;;2.43;;
24677;SDS011;12800;53.094;8.778;2023-12-20T09:36:46;12.47;;;2.57;;
24677;SDS011;12800;53.094;8.778;2023-12-20T09:39:19;12.33;;;2.50;;
24677;SDS011;12800;53.094;8.778;2023-12-20T09:41:46;11.87;;;3.07;;
24677;SDS011;12800;53.094;8.778;2023-12-20T09:44:22;15.40;;;3.37;;
24677;SDS011;12800;53.094;8.778;2023-12-20T09:46:49;17.97;;;3.53;;
24677;SDS011;12800;53.094;8.778;2023-12-20T09:49:17;9.33;;;2.50;;
24677;SDS011;12800;53.094;8.778;2023-12-20T09:51:44;8.60;;;1.97;;
24677;SDS011;12800;53.094;8.778;2023-12-20T09:54:13;7.07;;;2.33;;
24677;SDS011;12800;53.094;8.778;2023-12-20T09:56:39;5.17;;;2.80;;
24677;SDS011;12800;53.094;8.778;2023-12-20T09:59:05;7.63;;;1.70;;
24677;SDS011;12800;53.094;8.778;2023-12-20T10:01:31;7.27;;;0.70;;
24677;SDS011;12800;53.094;8.778;2023-12-20T10:03:58;3.27;;;0.80;;
24677;SDS011;12800;53.094;8.778;2023-12-20T10:06:26;3.33;;;0.70;;
24677;SDS011;12800;53.094;8.778;2023-12-20T10:08:52;1.87;;;0.73;;
24677;SDS011;12800;53.094;8.778;2023-12-20T10:11:18;2.20;;;0.60;;
24677;SDS011;12800;53.094;8.778;2023-12-20T10:13:44;2.27;;;0.40;;
24677;SDS011;12800;53.094;8.778;2023-12-20T10:16:13;1.93;;;0.40;;
24677;SDS011;12800;53.094;8.778;2023-12-20T10:18:39;5.50;;;0.57;;
24677;SDS011;12800;53.094;8.778;2023-12-20T10:21:04;2.87;;;0.80;;
24677;SDS011;12800;53.094;8.778;2023-12-20T10:23:32;3.47;;;0.73;;
24677;SDS011;12800;53.094;8.778;2023-12-20T10:25:58;3.60;;;0.60;;
24677;SDS011;12800;53.094;8.778;2023-12-20T10:28:24;2.17;;;1.43;;
24677;SDS011;12800;53.094;8.778;2023-12-20T10:30:53;1.47;;;0.67;;
24677;SDS011;12800;53.094;8.778;2023-12-20T10:33:24;1.73;;;0.60;;
24677;SDS011;12800;53.094;8.778;2023-12-20T10:35:50;1.73;;;0.53;;
24677;SDS011;12800;53.094;8.778;2023-12-20T10:38:17;2.00;;;0.60;;
24677;SDS011;12800;53.094;8.778;2023-12-20T10:40:43;2.83;;;0.70;;
24677;SDS011;12800;53.094;8.778;2023-12-20T10:43:11;3.70;;;0.80;;
24677;SDS011;12800;53.094;8.778;2023-12-20T10:45:36;4.53;;;0.90;;
24677;SDS011;12800;53.094;8.778;2023-12-20T10:48:02;3.60;;;0.60;;
24677;SDS011;12800;53.094;8.778;2023-12-20T10:50:29;4.93;;;1.43;;
24677;SDS011;12800;53.094;8.778;2023-12-20T10:52:56;2.50;;;0.83;;
24677;SDS011;12800;53.094;8.778;2023-12-20T10:55:23;2.97;;;1.00;;
24677;SDS011;12800;53.094;8.778;2023-12-20T10:57:50;4.10;;;1.07;;
24677;SDS011;12800;53.094;8.778;2023-12-20T11:00:17;3.97;;;0.80;;
24677;SDS011;12800;53.094;8.778;2023-12-20T11:02:44;5.87;;;1.03;;
24677;SDS011;12800;53.094;8.778;2023-12-20T11:05:14;4.63;;;1.10;;
24677;SDS011;12800;53.094;8.778;2023-12-20T11:07:50;3.30;;;0.80;;
24677;SDS011;12800;53.094;8.778;2023-12-20T11:10:23;5.47;;;0.97;;
24677;SDS011;12800;53.094;8.778;2023-12-20T11:12:54;5.63;;;1.20;;
24677;SDS011;12800;53.094;8.778;2023-12-20T11:15:25;3.60;;;0.93;;
24677;SDS011;12800;53.094;8.778;2023-12-20T11:17:55;5.07;;;0.90;;
24677;SDS011;12800;53.094;8.778;2023-12-20T11:20:22;2.50;;;0.90;;
24677;SDS011;12800;53.094;8.778;2023-12-20T11:22:52;4.27;;;1.27;;
24677;SDS011;12800;53.094;8.778;2023-12-20T11:25:19;5.10;;;0.93;;
24677;SDS011;12800;53.094;8.778;2023-12-20T11:27:47;6.00;;;1.20;;
24677;SDS011;12800;53.094;8.778;2023-12-20T11:30:56;6.63;;;1.20;;
24677;SDS011;12800;53.094;8.778;2023-12-20T11:33:46;6.33;;;1.30;;
24677;SDS011;12800;53.094;8.778;2023-12-20T11:36:14;6.00;;;1.80;;
24677;SDS011;12800;53.094;8.778;2023-12-20T11:38:58;5.47;;;1.20;;
24677;SDS011;12800;53.094;8.778;2023-12-20T11:41:25;6.50;;;1.17;;
24677;SDS011;12800;53.094;8.778;2023-12-20T11:43:54;3.70;;;1.03;;
24677;SDS011;12800;53.094;8.778;2023-12-20T11:46:21;4.97;;;1.77;;
24677;SDS011;12800;53.094;8.778;2023-12-20T11:48:47;11.20;;;2.73;;
24677;SDS011;12800;53.094;8.778;2023-12-20T11:51:13;7.80;;;1.80;;
24677;SDS011;12800;53.094;8.778;2023-12-20T11:53:39;5.83;;;1.40;;
24677;SDS011;12800;53.094;8.778;2023-12-20T11:56:07;3.80;;;0.97;;
24677;SDS011;12800;53.094;8.778;2023-12-20T11:58:33;4.03;;;1.10;;
24677;SDS011;12800;53.094;8.778;2023-12-20T12:00:59;9.70;;;1.43;;
24677;SDS011;12800;53.094;8.778;2023-12-20T12:03:27;9.07;;;2.00;;
24677;SDS011;12800;53.094;8.778;2023-12-20T12:05:53;10.70;;;1.73;;
24677;SDS011;12800;53.094;8.778;2023-12-20T12:08:18;8.87;;;1.93;;
24677;SDS011;12800;53.094;8.778;2023-12-20T12:10:44;16.70;;;2.10;;
24677;SDS011;12800;53.094;8.778;2023-12-20T12:13:10;6.57;;;1.67;;
24677;SDS011;12800;53.094;8.778;2023-12-20T12:15:36;6.00;;;1.70;;
24677;SDS011;12800;53.094;8.778;2023-12-20T12:18:02;7.63;;;1.87;;
24677;SDS011;12800;53.094;8.778;2023-12-20T12:20:29;8.70;;;2.27;;
24677;SDS011;12800;53.094;8.778;2023-12-20T12:22:58;8.73;;;1.57;;
24677;SDS011;12800;53.094;8.778;2023-12-20T12:25:31;10.20;;;2.53;;
24677;SDS011;12800;53.094;8.778;2023-12-20T12:27:58;12.97;;;2.67;;
24677;SDS011;12800;53.094;8.778;2023-12-20T12:30:24;11.87;;;3.87;;
24677;SDS011;12800;53.094;8.778;2023-12-20T12:32:50;5.53;;;2.63;;
24677;SDS011;12800;53.094;8.778;2023-12-20T12:35:17;13.33;;;2.60;;
24677;SDS011;12800;53.094;8.778;2023-12-20T12:37:44;9.80;;;2.30;;
24677;SDS011;12800;53.094;8.778;2023-12-20T12:40:10;7.27;;;1.90;;
24677;SDS011;12800;53.094;8.778;2023-12-20T12:42:37;13.10;;;2.30;;
24677;SDS011;12800;53.094;8.778;2023-12-20T12:45:03;5.63;;;1.90;;
24677;SDS011;12800;53.094;8.778;2023-12-20T12:47:29;11.40;;;2.70;;
24677;SDS011;12800;53.094;8.778;2023-12-20T12:49:55;11.37;;;1.83;;
24677;SDS011;12800;53.094;8.778;2023-12-20T12:52:21;9.10;;;2.53;;
24677;SDS011;12800;53.094;8.778;2023-12-20T12:54:47;8.70;;;1.93;;
24677;SDS011;12800;53.094;8.778;2023-12-20T12:57:14;12.80;;;1.90;;
24677;SDS011;12800;53.094;8.778;2023-12-20T12:59:41;15.77;;;3.03;;
24677;SDS011;12800;53.094;8.778;2023-12-20T13:02:08;14.83;;;2.00;;
24677;SDS011;12800;53.094;8.778;2023-12-20T13:04:34;8.70;;;1.90;;
24677;SDS011;12800;53.094;8.778;2023-12-20T13:07:00;7.97;;;1.93;;
24677;SDS011;12800;53.094;8.778;2023-12-20T13:09:25;11.80;;;1.80;;
24677;SDS011;12800;53.094;8.778;2023-12-20T13:11:51;9.43;;;1.97;;
24677;SDS011;12800;53.094;8.778;2023-12-20T13:14:17;9.07;;;1.90;;
24677;SDS011;12800;53.094;8.778;2023-12-20T13:16:42;9.50;;;1.93;;
24677;SDS011;12800;53.094;8.778;2023-12-20T13:19:09;11.80;;;1.47;;
24677;SDS011;12800;53.094;8.778;2023-12-20T13:21:35;8.33;;;2.10;;
24677;SDS011;12800;53.094;8.778;2023-12-20T13:24:01;9.67;;;1.80;;
24677;SDS011;12800;53.094;8.778;2023-12-20T13:26:27;5.27;;;1.67;;
24677;SDS011;12800;53.094;8.778;2023-12-20T13:28:53;7.53;;;1.57;;
24677;SDS011;12800;53.094;8.778;2023-12-20T13:31:19;6.10;;;1.70;;
24677;SDS011;12800;53.094;8.778;2023-12-20T13:33:45;7.73;;;1.77;;
24677;SDS011;12800;53.094;8.778;2023-12-20T13:36:11;7.87;;;1.50;;
24677;SDS011;12800;53.094;8.778;2023-12-20T13:38:37;12.70;;;2.03;;
24677;SDS011;12800;53.094;8.778;2023-12-20T13:41:03;6.43;;;1.90;;
24677;SDS011;12800;53.094;8.778;2023-12-20T13:43:29;7.00;;;1.63;;
24677;SDS011;12800;53.094;8.778;2023-12-20T13:45:57;14.67;;;2.03;;
24677;SDS011;12800;53.094;8.778;2023-12-20T13:48:26;16.33;;;2.43;;
24677;SDS011;12800;53.094;8.778;2023-12-20T13:50:52;7.90;;;2.20;;
24677;SDS011;12800;53.094;8.778;2023-12-20T13:53:17;12.70;;;2.53;;
24677;SDS011;12800;53.094;8.778;2023-12-20T13:55:44;13.00;;;2.73;;
24677;SDS011;12800;53.094;8.778;2023-12-20T13:58:09;10.10;;;3.27;;
24677;SDS011;12800;53.094;8.778;2023-12-20T14:00:35;8.80;;;2.63;;
24677;SDS011;12800;53.094;8.778;2023-12-20T14:03:02;11.27;;;2.33;;
24677;SDS011;12800;53.094;8.778;2023-12-20T14:05:28;9.63;;;1.87;;
24677;SDS011;12800;53.094;8.778;2023-12-20T14:07:54;8.20;;;1.77;;
24677;SDS011;12800;53.094;8.778;2023-12-20T14:10:22;7.67;;;2.10;;
24677;SDS011;12800;53.094;8.778;2023-12-20T14:12:51;8.57;;;2.50;;
24677;SDS011;12800;53.094;8.778;2023-12-20T14:15:17;9.43;;;3.03;;
24677;SDS011;12800;53.094;8.778;2023-12-20T14:17:43;14.83;;;2.97;;
24677;SDS011;12800;53.094;8.778;2023-12-20T14:20:09;7.57;;;1.83;;
24677;SDS011;12800;53.094;8.778;2023-12-20T14:22:35;9.80;;;1.87;;
24677;SDS011;12800;53.094;8.778;2023-12-20T14:25:01;12.97;;;1.97;;
24677;SDS011;12800;53.094;8.778;2023-12-20T14:27:27;7.97;;;1.70;;
24677;SDS011;12800;53.094;8.778;2023-12-20T14:29:53;6.70;;;1.50;;
24677;SDS011;12800;53.094;8.778;2023-12-20T14:32:19;10.57;;;1.73;;
24677;SDS011;12800;53.094;8.778;2023-12-20T14:34:45;10.67;;;1.90;;